createdAt,value
2018-10-06T00:00:21.906Z,127.809
2018-10-06T00:01:42.261Z,126.2949
2018-10-06T00:02:47.413Z,127.809
2018-10-06T00:03:52.879Z,127.809
2018-10-06T00:04:58.021Z,128.4854
2018-10-06T00:06:02.620Z,128.9055
2018-10-06T00:07:08.202Z,128.3163
2018-10-06T00:08:13.062Z,128.7364
2018-10-06T00:09:17.998Z,128.7364
2018-10-06T00:10:23.402Z,129.1592
2018-10-06T00:11:28.051Z,128.9055
2018-10-06T00:12:33.772Z,128.4854
2018-10-06T00:13:38.651Z,129.1592
2018-10-06T00:14:43.826Z,129.4102
2018-10-06T00:15:49.098Z,129.1592
2018-10-06T00:16:53.968Z,128.9055
2018-10-06T00:17:58.604Z,129.6639
2018-10-06T00:19:03.817Z,130.6759
2018-10-06T00:20:09.248Z,129.4102
2018-10-06T00:21:14.403Z,128.4854
2018-10-06T00:22:20.155Z,129.6639
2018-10-06T00:23:25.415Z,130.4222
2018-10-06T00:24:30.912Z,130.6759
2018-10-06T00:25:35.229Z,129.4102
2018-10-06T00:26:40.757Z,130.1712
2018-10-06T00:27:46.487Z,130.1712
2018-10-06T00:28:51.629Z,129.9176
2018-10-06T00:29:56.886Z,131.3497
2018-10-06T00:31:02.655Z,130.4222
2018-10-06T00:32:07.544Z,131.0987
2018-10-06T00:33:12.760Z,130.845
2018-10-06T00:34:18.575Z,130.845
2018-10-06T00:35:23.723Z,130.6759
2018-10-06T00:36:29.289Z,131.3497
2018-10-06T00:37:34.792Z,131.6033
2018-10-06T00:38:40.224Z,130.6759
2018-10-06T00:39:45.864Z,130.845
2018-10-06T00:40:51.060Z,131.0987
2018-10-06T00:41:56.213Z,129.4102
2018-10-06T00:43:01.351Z,130.845
2018-10-06T00:44:06.503Z,130.4222
2018-10-06T00:45:11.452Z,130.4222
2018-10-06T00:46:17.073Z,130.1712
2018-10-06T00:47:22.967Z,130.845
2018-10-06T00:48:28.951Z,131.0987
2018-10-06T00:49:34.408Z,130.4222
2018-10-06T00:50:39.562Z,130.1712
2018-10-06T00:51:45.408Z,130.6759
2018-10-06T00:52:50.551Z,131.3497
2018-10-06T00:53:56.050Z,129.9176
2018-10-06T00:55:01.716Z,131.3497
2018-10-06T00:56:06.879Z,131.6033
2018-10-06T00:57:12.303Z,131.3497
2018-10-06T00:58:17.944Z,131.0987
2018-10-06T00:59:23.487Z,131.3497
2018-10-06T01:00:28.923Z,131.0987
2018-10-06T01:01:33.830Z,130.6759
2018-10-06T01:02:39.262Z,130.845
2018-10-06T01:03:44.955Z,132.3617
2018-10-06T01:04:50.393Z,131.6033
2018-10-06T01:05:55.823Z,131.6033
2018-10-06T01:07:01.135Z,132.108
2018-10-06T01:08:06.054Z,131.3497
2018-10-06T01:09:11.499Z,132.108
2018-10-06T01:10:17.317Z,131.857
2018-10-06T01:11:22.197Z,132.3617
2018-10-06T01:12:27.988Z,131.857
2018-10-06T01:13:33.159Z,132.869
2018-10-06T01:14:38.665Z,132.6154
2018-10-06T01:15:43.941Z,132.3617
2018-10-06T01:16:49.124Z,133.2892
2018-10-06T01:17:54.045Z,132.3617
2018-10-06T01:18:59.591Z,133.2892
2018-10-06T01:20:05.061Z,132.108
2018-10-06T01:21:10.560Z,132.869
2018-10-06T01:22:15.692Z,133.7965
2018-10-06T01:23:20.883Z,133.12
2018-10-06T01:24:26.231Z,133.7965
2018-10-06T01:25:31.095Z,133.7965
2018-10-06T01:26:35.933Z,133.3737
2018-10-06T01:27:41.501Z,134.0475
2018-10-06T01:28:46.730Z,132.6154
2018-10-06T01:29:51.624Z,133.3737
2018-10-06T01:30:56.974Z,134.3012
2018-10-06T01:32:01.850Z,134.3012
2018-10-06T01:33:06.717Z,134.0475
2018-10-06T01:34:12.285Z,134.0475
2018-10-06T01:35:17.487Z,134.3012
2018-10-06T01:36:22.639Z,133.7965
2018-10-06T01:37:27.966Z,134.5548
2018-10-06T01:38:33.008Z,134.8058
2018-10-06T01:39:37.806Z,134.8058
2018-10-06T01:40:43.235Z,135.0595
2018-10-06T01:41:48.685Z,135.3132
2018-10-06T01:42:54.084Z,135.3132
2018-10-06T01:43:59.322Z,134.8058
2018-10-06T01:45:03.344Z,135.3132
2018-10-06T01:46:08.495Z,135.3132
2018-10-06T01:47:14.000Z,135.3132
2018-10-06T01:48:18.970Z,135.8179
2018-10-06T01:49:24.890Z,136.2406
2018-10-06T01:50:29.423Z,135.8179
2018-10-06T01:51:34.609Z,135.5668
2018-10-06T01:52:40.065Z,136.2406
2018-10-06T01:53:45.499Z,136.7479
2018-10-06T01:54:51.162Z,136.4943
2018-10-06T01:55:56.635Z,135.8179
2018-10-06T01:57:02.135Z,136.4943
2018-10-06T01:58:06.981Z,136.4943
2018-10-06T01:59:12.179Z,137.2526
2018-10-06T02:00:17.338Z,137.5063
2018-10-06T02:01:23.115Z,135.5668
2018-10-06T02:02:28.301Z,135.8179
2018-10-06T02:03:33.324Z,136.999
2018-10-06T02:04:37.910Z,136.999
2018-10-06T02:05:43.472Z,136.4943
2018-10-06T02:06:48.753Z,136.999
2018-10-06T02:07:53.941Z,136.7479
2018-10-06T02:08:59.477Z,136.7479
2018-10-06T02:10:04.565Z,136.999
2018-10-06T02:11:09.731Z,135.987
2018-10-06T02:12:14.779Z,135.987
2018-10-06T02:13:19.890Z,137.2526
2018-10-06T02:14:25.163Z,136.7479
2018-10-06T02:15:29.902Z,136.7479
2018-10-06T02:16:35.056Z,136.7479
2018-10-06T02:17:40.575Z,136.4943
2018-10-06T02:18:45.979Z,136.999
2018-10-06T02:19:50.566Z,136.4943
2018-10-06T02:20:56.007Z,136.999
2018-10-06T02:22:00.893Z,136.7479
2018-10-06T02:23:06.077Z,137.2526
2018-10-06T02:24:11.509Z,136.2406
2018-10-06T02:25:17.085Z,137.2526
2018-10-06T02:26:22.284Z,136.7479
2018-10-06T02:27:28.217Z,137.5063
2018-10-06T02:28:33.428Z,137.5063
2018-10-06T02:29:38.892Z,136.999
2018-10-06T02:30:44.481Z,137.2526
2018-10-06T02:31:49.360Z,137.7599
2018-10-06T02:32:54.789Z,137.5063
2018-10-06T02:34:00.342Z,136.999
2018-10-06T02:35:05.213Z,135.987
2018-10-06T02:36:10.692Z,137.5063
2018-10-06T02:37:16.389Z,137.2526
2018-10-06T02:38:21.876Z,138.2646
2018-10-06T02:39:27.158Z,137.7599
2018-10-06T02:40:32.528Z,138.011
2018-10-06T02:41:37.960Z,138.2646
2018-10-06T02:42:43.808Z,137.5063
2018-10-06T02:43:49.305Z,137.5063
2018-10-06T02:44:54.468Z,138.4337
2018-10-06T02:46:00.239Z,138.4337
2018-10-06T02:47:05.382Z,138.011
2018-10-06T02:48:10.050Z,138.2646
2018-10-06T02:49:15.215Z,138.4337
2018-10-06T02:50:20.671Z,137.7599
2018-10-06T02:51:40.661Z,138.011
2018-10-06T02:52:45.581Z,137.2526
2018-10-06T02:53:51.059Z,137.5063
2018-10-06T02:54:56.717Z,137.5063
2018-10-06T02:56:01.915Z,137.2526
2018-10-06T02:57:06.551Z,138.011
2018-10-06T02:58:12.239Z,136.7479
2018-10-06T02:59:17.668Z,137.5063
2018-10-06T03:00:22.831Z,136.999
2018-10-06T03:01:28.711Z,137.5063
2018-10-06T03:02:33.586Z,136.999
2018-10-06T03:03:39.357Z,138.4337
2018-10-06T03:04:44.825Z,137.7599
2018-10-06T03:05:49.755Z,137.2526
2018-10-06T03:06:55.393Z,137.5063
2018-10-06T03:08:00.670Z,137.7599
2018-10-06T03:09:06.186Z,137.5063
2018-10-06T03:10:11.406Z,137.7599
2018-10-06T03:11:16.856Z,136.999
2018-10-06T03:12:22.434Z,137.7599
2018-10-06T03:13:42.792Z,137.5063
2018-10-06T03:14:48.038Z,137.7599
2018-10-06T03:15:53.151Z,138.4337
2018-10-06T03:16:58.599Z,137.7599
2018-10-06T03:18:03.201Z,137.7599
2018-10-06T03:19:08.758Z,137.7599
2018-10-06T03:20:13.687Z,137.7599
2018-10-06T03:21:18.860Z,138.4337
2018-10-06T03:22:24.271Z,138.4337
2018-10-06T03:23:29.841Z,138.4337
2018-10-06T03:24:35.624Z,139.6994
2018-10-06T03:25:40.766Z,139.9531
2018-10-06T03:26:46.004Z,138.6874
2018-10-06T03:27:51.845Z,138.9411
2018-10-06T03:28:56.730Z,138.4337
2018-10-06T03:30:01.619Z,139.6994
2018-10-06T03:31:06.917Z,139.4458
2018-10-06T03:32:11.782Z,139.4458
2018-10-06T03:33:17.238Z,140.2067
2018-10-06T03:34:22.820Z,139.1921
2018-10-06T03:35:27.428Z,139.6994
2018-10-06T03:36:33.310Z,139.4458
2018-10-06T03:37:38.518Z,139.6994
2018-10-06T03:38:43.938Z,139.4458
2018-10-06T03:39:49.514Z,139.4458
2018-10-06T03:40:54.943Z,140.8805
2018-10-06T03:42:00.408Z,139.9531
2018-10-06T03:43:05.836Z,139.6994
2018-10-06T03:44:10.989Z,140.8805
2018-10-06T03:45:16.417Z,140.4578
2018-10-06T03:46:21.848Z,140.2067
2018-10-06T03:47:26.989Z,141.0496
2018-10-06T03:48:32.526Z,140.796
2018-10-06T03:49:37.720Z,139.9531
2018-10-06T03:50:42.878Z,140.6269
2018-10-06T03:51:48.004Z,140.8805
2018-10-06T03:52:52.867Z,140.796
2018-10-06T03:53:58.260Z,140.8805
2018-10-06T03:55:03.790Z,140.6269
2018-10-06T03:56:08.652Z,140.796
2018-10-06T03:57:13.540Z,140.796
2018-10-06T03:58:18.957Z,140.796
2018-10-06T03:59:24.097Z,140.796
2018-10-06T04:00:29.260Z,141.0496
2018-10-06T04:01:34.411Z,141.0496
2018-10-06T04:02:39.546Z,141.0496
2018-10-06T04:03:45.169Z,141.557
2018-10-06T04:04:50.740Z,141.3033
2018-10-06T04:05:55.891Z,141.557
2018-10-06T04:07:01.569Z,141.808
2018-10-06T04:08:06.779Z,141.0496
2018-10-06T04:09:11.935Z,141.0496
2018-10-06T04:10:17.389Z,142.569
2018-10-06T04:11:22.250Z,141.0496
2018-10-06T04:12:27.933Z,142.0616
2018-10-06T04:13:33.099Z,142.3153
2018-10-06T04:14:37.977Z,142.3153
2018-10-06T04:15:43.763Z,143.0737
2018-10-06T04:16:48.658Z,142.569
2018-10-06T04:17:53.522Z,143.0737
2018-10-06T04:18:59.133Z,143.4964
2018-10-06T04:20:03.816Z,143.7501
2018-10-06T04:21:08.978Z,142.569
2018-10-06T04:22:14.812Z,142.8226
2018-10-06T04:23:19.827Z,143.4964
2018-10-06T04:25:45.221Z,143.7501
2018-10-06T04:26:50.382Z,143.3273
2018-10-06T04:27:55.960Z,143.7501
2018-10-06T04:29:01.432Z,144.0038
2018-10-06T04:30:06.057Z,144.0038
2018-10-06T04:31:11.594Z,143.7501
2018-10-06T04:32:17.075Z,144.2574
2018-10-06T04:33:22.506Z,144.2574
2018-10-06T04:34:42.837Z,144.0038
2018-10-06T04:35:48.271Z,144.7621
2018-10-06T04:36:53.993Z,144.7621
2018-10-06T04:37:59.130Z,144.7621
2018-10-06T04:39:04.291Z,145.0158
2018-10-06T04:40:10.019Z,145.2694
2018-10-06T04:41:15.450Z,145.0158
2018-10-06T04:42:20.687Z,144.7621
2018-10-06T04:43:26.201Z,145.0158
2018-10-06T04:44:31.344Z,144.5084
2018-10-06T04:45:37.175Z,145.0158
2018-10-06T04:46:42.693Z,145.7767
2018-10-06T04:47:47.836Z,145.0158
2018-10-06T04:48:53.247Z,145.2694
2018-10-06T04:49:58.681Z,145.0158
2018-10-06T04:51:03.548Z,145.2694
2018-10-06T04:52:08.929Z,146.4505
2018-10-06T04:53:14.142Z,145.7767
2018-10-06T04:54:19.061Z,146.1969
2018-10-06T04:55:24.866Z,145.7767
2018-10-06T04:56:30.363Z,146.4505
2018-10-06T04:57:36.192Z,145.7767
2018-10-06T04:58:41.877Z,146.1969
2018-10-06T04:59:46.811Z,146.4505
2018-10-06T05:00:52.382Z,146.4505
2018-10-06T05:01:57.933Z,146.7042
2018-10-06T05:03:02.601Z,146.1969
2018-10-06T05:04:07.992Z,146.7042
2018-10-06T05:05:13.129Z,146.1969
2018-10-06T05:06:18.336Z,145.2694
2018-10-06T05:07:23.741Z,145.7767
2018-10-06T05:08:28.972Z,145.9459
2018-10-06T05:09:34.785Z,145.0158
2018-10-06T05:10:39.936Z,145.9459
2018-10-06T05:11:45.379Z,146.4505
2018-10-06T05:12:50.232Z,145.7767
2018-10-06T05:13:55.671Z,145.9459
2018-10-06T05:15:01.109Z,145.9459
2018-10-06T05:16:06.047Z,145.7767
2018-10-06T05:17:11.192Z,145.9459
2018-10-06T05:18:16.626Z,145.9459
2018-10-06T05:19:22.449Z,145.9459
2018-10-06T05:20:27.875Z,145.9459
2018-10-06T05:21:33.217Z,145.9459
2018-10-06T05:22:38.387Z,145.5231
2018-10-06T05:23:44.342Z,145.6922
2018-10-06T05:24:50.250Z,145.6922
2018-10-06T05:25:55.700Z,146.1969
2018-10-06T05:27:00.328Z,145.9459
2018-10-06T05:28:06.064Z,146.1969
2018-10-06T05:29:11.532Z,145.6922
2018-10-06T05:30:16.394Z,145.9459
2018-10-06T05:31:22.322Z,145.6922
2018-10-06T05:32:27.606Z,145.6922
2018-10-06T05:33:32.883Z,145.9459
2018-10-06T05:34:38.038Z,145.9459
2018-10-06T05:35:43.197Z,146.7042
2018-10-06T05:36:48.132Z,146.7042
2018-10-06T05:37:53.082Z,145.5231
2018-10-06T05:38:57.995Z,145.9459
2018-10-06T05:40:02.994Z,146.4505
2018-10-06T05:41:07.867Z,145.9459
2018-10-06T05:42:13.332Z,146.4505
2018-10-06T05:43:19.053Z,146.4505
2018-10-06T05:44:24.236Z,145.9459
2018-10-06T05:45:29.868Z,146.9579
2018-10-06T05:46:35.865Z,146.4505
2018-10-06T05:47:41.541Z,146.9579
2018-10-06T05:48:46.446Z,146.9579
2018-10-06T05:49:51.600Z,146.4505
2018-10-06T05:50:56.848Z,146.9579
2018-10-06T05:52:02.352Z,146.9579
2018-10-06T05:53:07.788Z,146.1969
2018-10-06T05:54:12.997Z,145.6922
2018-10-06T05:55:18.682Z,146.1969
2018-10-06T05:56:24.192Z,145.5231
2018-10-06T05:57:29.644Z,145.9459
2018-10-06T05:58:34.865Z,146.4505
2018-10-06T05:59:40.043Z,145.5231
2018-10-06T06:05:40.103Z,146.1969
2018-10-06T06:06:45.596Z,146.4505
2018-10-06T06:07:50.499Z,146.4505
2018-10-06T06:08:55.652Z,145.5231
2018-10-06T06:10:01.769Z,145.2694
2018-10-06T06:11:07.254Z,145.5231
2018-10-06T06:12:11.975Z,145.6922
2018-10-06T06:13:17.512Z,145.5231
2018-10-06T06:14:22.390Z,145.2694
2018-10-06T06:15:27.896Z,144.5084
2018-10-06T06:16:33.387Z,145.0158
2018-10-06T06:17:38.302Z,145.5231
2018-10-06T06:18:43.448Z,145.5231
2018-10-06T06:19:48.677Z,145.0158
2018-10-06T06:20:54.181Z,145.9459
2018-10-06T06:21:59.723Z,145.9459
2018-10-06T06:23:04.873Z,145.6922
2018-10-06T06:24:10.365Z,146.4505
2018-10-06T06:25:16.231Z,145.2694
2018-10-06T06:26:21.410Z,144.7621
2018-10-06T06:27:27.175Z,144.7621
2018-10-06T06:28:32.043Z,145.2694
2018-10-06T06:29:37.260Z,145.5231
2018-10-06T06:30:43.370Z,145.0158
2018-10-06T06:31:48.588Z,144.2574
2018-10-06T06:32:53.195Z,145.0158
2018-10-06T06:33:58.893Z,144.7621
2018-10-06T06:35:02.911Z,144.5084
2018-10-06T06:36:07.815Z,145.0158
2018-10-06T06:37:13.206Z,145.0158
2018-10-06T06:38:18.482Z,145.0158
2018-10-06T06:39:23.422Z,145.0158
2018-10-06T06:40:29.292Z,144.5084
2018-10-06T06:41:34.156Z,145.0158
2018-10-06T06:42:39.515Z,145.0158
2018-10-06T06:43:45.633Z,145.5231
2018-10-06T06:44:50.495Z,144.5084
2018-10-06T06:45:56.137Z,146.1969
2018-10-06T06:47:01.584Z,145.9459
2018-10-06T06:48:06.456Z,145.9459
2018-10-06T06:49:12.240Z,145.5231
2018-10-06T06:50:17.387Z,145.9459
2018-10-06T06:51:22.830Z,146.1969
2018-10-06T06:52:28.651Z,145.6922
2018-10-06T06:53:33.795Z,145.2694
2018-10-06T06:54:39.160Z,145.6922
2018-10-06T06:55:44.335Z,146.7042
2018-10-06T06:56:48.930Z,146.7042
2018-10-06T06:57:54.306Z,146.7042
2018-10-06T06:58:59.470Z,146.9579
2018-10-06T07:00:04.617Z,148.3926
2018-10-06T07:01:10.124Z,146.7042
2018-10-06T07:02:15.348Z,147.4652
2018-10-06T07:03:20.502Z,147.4652
2018-10-06T07:04:26.276Z,147.2115
2018-10-06T07:05:31.551Z,147.9699
2018-10-06T07:06:36.988Z,147.2115
2018-10-06T07:07:41.858Z,147.7189
2018-10-06T07:08:47.289Z,147.9699
2018-10-06T07:09:53.040Z,148.8154
2018-10-06T07:10:57.924Z,148.3926
2018-10-06T07:12:02.511Z,148.5618
2018-10-06T07:13:08.298Z,148.5618
2018-10-06T07:14:13.732Z,149.0691
2018-10-06T07:15:19.162Z,148.8154
2018-10-06T07:16:24.888Z,149.3227
2018-10-06T07:17:30.324Z,148.8154
2018-10-06T07:18:36.601Z,148.8154
2018-10-06T07:19:42.429Z,149.5764
2018-10-06T07:20:47.314Z,149.3227
2018-10-06T07:21:52.877Z,150.0811
2018-10-06T07:22:57.921Z,149.3227
2018-10-06T07:24:03.389Z,149.5764
2018-10-06T07:25:08.529Z,149.3227
2018-10-06T07:26:13.688Z,149.5764
2018-10-06T07:27:18.590Z,148.5618
2018-10-06T07:28:24.608Z,149.5764
2018-10-06T07:29:29.892Z,149.5764
2018-10-06T07:30:35.871Z,149.5764
2018-10-06T07:31:41.052Z,150.3347
2018-10-06T07:32:46.293Z,149.5764
2018-10-06T07:33:52.104Z,149.5764
2018-10-06T07:34:57.061Z,149.0691
2018-10-06T07:36:02.337Z,149.8274
2018-10-06T07:37:07.339Z,149.0691
2018-10-06T07:38:12.238Z,149.3227
2018-10-06T07:39:17.739Z,149.0691
2018-10-06T07:40:22.875Z,149.5764
2018-10-06T07:41:28.037Z,148.5618
2018-10-06T07:42:33.599Z,149.3227
2018-10-06T07:43:39.029Z,149.8274
2018-10-06T07:44:44.595Z,149.8274
2018-10-06T07:45:50.214Z,149.8274
2018-10-06T07:46:54.799Z,149.3227
2018-10-06T07:48:00.228Z,150.0811
2018-10-06T07:49:05.383Z,150.0811
2018-10-06T07:50:10.536Z,149.8274
2018-10-06T07:51:15.675Z,150.0811
2018-10-06T07:52:21.027Z,149.3227
2018-10-06T07:53:26.171Z,150.5884
2018-10-06T07:54:31.981Z,149.5764
2018-10-06T07:55:37.193Z,149.5764
2018-10-06T07:56:42.716Z,150.5884
2018-10-06T07:57:48.143Z,150.8421
2018-10-06T07:58:53.028Z,150.3347
2018-10-06T07:59:58.456Z,150.8421
2018-10-06T08:01:03.870Z,150.8421
2018-10-06T08:02:08.870Z,150.3347
2018-10-06T08:03:13.744Z,151.2648
2018-10-06T08:04:19.367Z,150.5884
2018-10-06T08:05:24.875Z,151.5185
2018-10-06T08:06:30.765Z,151.2648
2018-10-06T08:07:36.497Z,150.8421
2018-10-06T08:08:41.836Z,150.0811
2018-10-06T08:09:47.260Z,151.5185
2018-10-06T08:10:52.411Z,151.2648
2018-10-06T08:11:57.583Z,151.7722
2018-10-06T08:13:03.262Z,151.2648
2018-10-06T08:14:08.423Z,151.2648
2018-10-06T08:15:13.902Z,151.2648
2018-10-06T08:16:19.218Z,151.7722
2018-10-06T08:17:24.123Z,151.0957
2018-10-06T08:18:29.547Z,151.7722
2018-10-06T08:19:34.994Z,151.7722
2018-10-06T08:20:39.858Z,151.5185
2018-10-06T08:21:45.190Z,150.8421
2018-10-06T08:22:49.787Z,151.3494
2018-10-06T08:23:54.196Z,152.2769
2018-10-06T08:24:59.830Z,151.7722
2018-10-06T08:26:04.976Z,151.3494
2018-10-06T08:27:09.284Z,151.3494
2018-10-06T08:28:15.011Z,151.3494
2018-10-06T08:29:20.160Z,151.5185
2018-10-06T08:30:40.632Z,151.0957
2018-10-06T08:31:45.787Z,152.0232
2018-10-06T08:32:51.278Z,151.3494
2018-10-06T08:33:56.892Z,151.5185
2018-10-06T08:35:01.467Z,152.0232
2018-10-06T08:36:06.324Z,152.5305
2018-10-06T08:37:11.824Z,152.0232
2018-10-06T08:38:17.311Z,151.7722
2018-10-06T08:39:22.468Z,153.0378
2018-10-06T08:40:28.536Z,152.2769
2018-10-06T08:41:34.087Z,152.7842
2018-10-06T08:42:39.472Z,153.2915
2018-10-06T08:43:44.469Z,153.0378
2018-10-06T08:44:49.626Z,152.7842
2018-10-06T08:45:54.875Z,152.7842
2018-10-06T08:47:00.330Z,153.0378
2018-10-06T08:48:05.201Z,152.7842
2018-10-06T08:49:10.234Z,153.2915
2018-10-06T08:50:15.737Z,153.9679
2018-10-06T08:51:20.892Z,154.2216
2018-10-06T08:52:26.168Z,153.5452
2018-10-06T08:53:31.430Z,153.9679
2018-10-06T08:54:37.072Z,154.2216
2018-10-06T08:55:41.958Z,153.7988
2018-10-06T08:56:47.330Z,154.7289
2018-10-06T08:57:52.948Z,154.4753
2018-10-06T08:58:58.380Z,154.9826
2018-10-06T09:00:03.309Z,154.7289
2018-10-06T09:01:08.697Z,154.0525
2018-10-06T09:02:14.132Z,154.7289
2018-10-06T09:03:19.165Z,154.7289
2018-10-06T09:04:25.474Z,154.9826
2018-10-06T09:05:30.782Z,155.2336
2018-10-06T09:06:36.564Z,154.0525
2018-10-06T09:07:41.989Z,155.4873
2018-10-06T09:08:47.483Z,155.2336
2018-10-06T09:09:53.357Z,154.9826
2018-10-06T09:10:58.957Z,155.4873
2018-10-06T09:12:03.971Z,155.2336
2018-10-06T09:13:09.658Z,155.2336
2018-10-06T09:14:15.140Z,155.91
2018-10-06T09:15:19.732Z,155.4873
2018-10-06T09:16:24.960Z,155.4873
2018-10-06T09:17:30.385Z,156.1637
2018-10-06T09:18:36.101Z,155.7409
2018-10-06T09:19:41.068Z,156.1637
2018-10-06T09:20:45.366Z,155.2336
2018-10-06T09:21:50.302Z,156.671
2018-10-06T09:22:55.618Z,155.91
2018-10-06T09:23:59.928Z,156.1637
2018-10-06T09:25:05.892Z,156.4174
2018-10-06T09:26:10.771Z,155.91
2018-10-06T09:27:15.938Z,156.4174
2018-10-06T09:28:22.322Z,155.91
2018-10-06T09:29:27.435Z,156.8401
2018-10-06T09:30:33.279Z,156.671
2018-10-06T09:31:38.761Z,156.4174
2018-10-06T09:32:44.210Z,156.671
2018-10-06T09:33:49.706Z,156.671
2018-10-06T09:34:54.643Z,156.671
2018-10-06T09:35:59.885Z,156.1637
2018-10-06T09:37:04.734Z,156.8401
2018-10-06T09:38:10.251Z,157.0938
2018-10-06T09:39:15.445Z,157.3475
2018-10-06T09:40:21.275Z,156.671
2018-10-06T09:41:26.749Z,156.1637
2018-10-06T09:42:33.741Z,157.3475
2018-10-06T09:43:39.657Z,157.0938
2018-10-06T09:44:44.821Z,158.1085
2018-10-06T09:45:50.550Z,157.0938
2018-10-06T09:46:55.211Z,157.3475
2018-10-06T09:48:00.877Z,157.8548
2018-10-06T09:49:06.677Z,157.6011
2018-10-06T09:50:12.257Z,157.6011
2018-10-06T09:51:17.120Z,157.6011
2018-10-06T09:52:22.995Z,158.3621
2018-10-06T09:53:28.205Z,158.1085
2018-10-06T09:54:33.821Z,158.6158
2018-10-06T09:55:38.974Z,158.3621
2018-10-06T09:56:44.404Z,158.3621
2018-10-06T09:57:50.036Z,158.1085
2018-10-06T09:58:55.218Z,159.1231
2018-10-06T10:00:00.386Z,159.7995
2018-10-06T10:01:05.508Z,159.3768
2018-10-06T10:02:10.390Z,159.3768
2018-10-06T10:03:15.622Z,159.5459
2018-10-06T10:04:21.394Z,160.0532
2018-10-06T10:05:26.903Z,159.7995
2018-10-06T10:06:32.871Z,160.3069
2018-10-06T10:07:37.678Z,160.3069
2018-10-06T10:08:42.860Z,161.5752
2018-10-06T10:09:48.705Z,160.5605
2018-10-06T10:10:54.073Z,161.0652
2018-10-06T10:11:59.527Z,160.3069
2018-10-06T10:13:05.161Z,162.5026
2018-10-06T10:14:10.672Z,161.8262
2018-10-06T10:15:16.298Z,161.8262
2018-10-06T10:16:22.104Z,161.5752
2018-10-06T10:17:27.341Z,162.249
2018-10-06T10:18:33.452Z,162.7563
2018-10-06T10:19:38.968Z,162.7563
2018-10-06T10:20:43.636Z,162.7563
2018-10-06T10:21:49.789Z,163.0126
2018-10-06T10:22:55.570Z,163.0126
2018-10-06T10:24:01.200Z,163.5173
2018-10-06T10:25:06.634Z,163.0126
2018-10-06T10:26:12.159Z,163.7736
2018-10-06T10:27:17.314Z,163.2636
2018-10-06T10:28:23.584Z,163.7736
2018-10-06T10:29:29.155Z,163.5173
2018-10-06T10:30:34.411Z,163.5173
2018-10-06T10:31:39.885Z,163.2636
2018-10-06T10:32:45.037Z,163.2636
2018-10-06T10:33:50.579Z,163.2636
2018-10-06T10:34:56.222Z,163.7736
2018-10-06T10:36:01.664Z,163.0126
2018-10-06T10:37:06.987Z,162.7563
2018-10-06T10:38:12.147Z,163.5173
2018-10-06T10:39:17.772Z,162.5026
2018-10-06T10:40:23.398Z,163.2636
2018-10-06T10:41:28.908Z,164.5346
2018-10-06T10:42:34.738Z,163.5173
2018-10-06T10:43:39.915Z,163.7736
2018-10-06T10:44:45.095Z,163.7736
2018-10-06T10:45:50.845Z,164.0246
2018-10-06T10:46:56.267Z,163.7736
2018-10-06T10:48:01.443Z,164.2783
2018-10-06T10:49:07.026Z,164.0246
2018-10-06T10:50:11.923Z,163.5173
2018-10-06T10:51:17.366Z,164.2783
2018-10-06T10:52:23.232Z,164.5346
2018-10-06T10:53:28.290Z,164.5346
2018-10-06T10:54:33.569Z,164.2783
2018-10-06T10:55:39.502Z,164.2783
2018-10-06T10:56:44.613Z,164.0246
2018-10-06T10:57:50.649Z,164.0246
2018-10-06T10:58:56.398Z,165.0393
2018-10-06T11:00:03.939Z,163.7736
2018-10-06T11:01:09.625Z,165.0393
2018-10-06T11:02:14.939Z,165.211
2018-10-06T11:03:19.851Z,164.5346
2018-10-06T11:04:24.956Z,165.0393
2018-10-06T11:05:30.472Z,165.211
2018-10-06T11:06:36.665Z,166.2257
2018-10-06T11:07:41.812Z,165.211
2018-10-06T11:08:46.966Z,165.211
2018-10-06T11:09:52.461Z,166.4793
2018-10-06T11:10:57.774Z,165.7183
2018-10-06T11:12:02.762Z,165.7183
2018-10-06T11:13:08.307Z,165.972
2018-10-06T11:14:13.472Z,166.9866
2018-10-06T11:15:18.411Z,166.9866
2018-10-06T11:16:24.188Z,166.733
2018-10-06T11:17:29.056Z,166.4793
2018-10-06T11:18:34.737Z,167.2403
2018-10-06T11:19:39.937Z,167.494
2018-10-06T11:20:44.802Z,167.494
2018-10-06T11:21:49.497Z,167.7476
2018-10-06T11:22:54.667Z,167.8322
2018-10-06T11:23:59.817Z,166.9866
2018-10-06T11:25:04.374Z,167.494
2018-10-06T11:26:09.528Z,167.7476
2018-10-06T11:27:15.114Z,167.494
2018-10-06T11:28:20.629Z,168.3395
2018-10-06T11:29:25.225Z,168.0858
2018-10-06T11:30:30.510Z,167.9167
2018-10-06T11:31:35.963Z,167.9167
2018-10-06T11:32:41.393Z,168.3395
2018-10-06T11:33:46.567Z,169.1005
2018-10-06T11:34:51.706Z,168.8468
2018-10-06T11:35:56.887Z,168.8468
2018-10-06T11:37:02.568Z,168.3395
2018-10-06T11:38:07.023Z,168.3395
2018-10-06T11:39:11.977Z,170.1152
2018-10-06T11:40:17.845Z,168.0858
2018-10-06T11:41:23.026Z,169.6078
2018-10-06T11:42:29.178Z,169.6078
2018-10-06T11:43:34.380Z,169.6078
2018-10-06T11:44:39.274Z,170.3715
2018-10-06T11:45:44.778Z,169.6078
2018-10-06T11:46:49.374Z,170.3715
2018-10-06T11:47:54.243Z,170.6251
2018-10-06T11:48:59.854Z,170.3715
2018-10-06T11:50:04.789Z,170.3715
2018-10-06T11:51:09.960Z,170.3715
2018-10-06T11:52:15.255Z,171.217
2018-10-06T11:53:20.235Z,170.8788
2018-10-06T11:55:45.667Z,170.3715
2018-10-06T11:56:50.820Z,171.217
2018-10-06T11:57:56.618Z,171.217
2018-10-06T11:59:01.634Z,171.217
2018-10-06T12:00:08.243Z,171.217
2018-10-06T12:01:14.170Z,171.217
2018-10-06T12:02:19.600Z,172.739
2018-10-06T12:03:24.771Z,172.2316
2018-10-06T12:04:45.119Z,172.4853
2018-10-06T12:05:50.998Z,172.739
2018-10-06T12:06:56.693Z,173.2489
2018-10-06T12:08:02.125Z,173.2489
2018-10-06T12:09:07.278Z,173.7563
2018-10-06T12:10:12.850Z,173.2489
2018-10-06T12:11:18.040Z,174.179
2018-10-06T12:12:23.465Z,173.7563
2018-10-06T12:13:28.515Z,172.2316
2018-10-06T12:14:33.945Z,174.179
2018-10-06T12:15:39.382Z,174.6864
2018-10-06T12:16:44.845Z,174.0099
2018-10-06T12:17:49.710Z,174.6864
2018-10-06T12:18:55.423Z,174.4327
2018-10-06T12:20:00.909Z,174.0099
2018-10-06T12:21:06.060Z,175.45
2018-10-06T12:22:11.739Z,174.6864
2018-10-06T12:23:17.200Z,174.4327
2018-10-06T12:24:22.639Z,174.179
2018-10-06T12:25:28.838Z,174.6864
2018-10-06T12:26:33.981Z,175.45
2018-10-06T12:27:39.811Z,175.1937
2018-10-06T12:28:45.350Z,174.94
2018-10-06T12:29:50.243Z,174.4327
2018-10-06T12:30:55.659Z,174.4327
2018-10-06T12:32:01.090Z,175.1937
2018-10-06T12:33:05.685Z,174.94
2018-10-06T12:34:11.417Z,175.1937
2018-10-06T12:35:17.371Z,174.4327
2018-10-06T12:36:22.934Z,175.9573
2018-10-06T12:37:28.821Z,175.45
2018-10-06T12:38:34.035Z,174.6864
2018-10-06T12:39:39.775Z,175.1937
2018-10-06T12:40:44.935Z,176.211
2018-10-06T12:41:49.568Z,175.1937
2018-10-06T12:42:55.401Z,175.7037
2018-10-06T12:44:00.416Z,175.45
2018-10-06T12:45:06.238Z,175.9573
2018-10-06T12:46:11.742Z,175.9573
2018-10-06T12:47:17.307Z,176.4646
2018-10-06T12:48:22.746Z,175.9573
2018-10-06T12:49:42.538Z,175.7037
2018-10-06T12:50:47.418Z,176.211
2018-10-06T12:51:52.820Z,176.4646
2018-10-06T12:52:57.750Z,176.211
2018-10-06T12:54:03.304Z,176.972
2018-10-06T12:55:09.036Z,176.211
2018-10-06T12:56:14.225Z,176.4646
2018-10-06T12:57:19.691Z,176.4646
2018-10-06T12:58:25.574Z,176.4646
2018-10-06T12:59:30.764Z,176.972